createdAt,value
2018-04-17T05:21:12.152Z,84.38
2018-04-17T05:22:12.128Z,84.38
2018-04-17T05:23:12.100Z,90.00
2018-04-17T05:24:12.081Z,90.00
2018-04-17T05:25:12.050Z,90.00
2018-04-17T05:26:12.057Z,95.63
2018-04-17T05:27:12.003Z,95.63
2018-04-17T05:28:11.998Z,95.63
2018-04-17T05:29:11.960Z,101.25
2018-04-17T05:30:11.943Z,101.25
2018-04-17T05:31:11.924Z,101.25
2018-04-17T05:32:11.895Z,106.88
2018-04-17T05:33:11.933Z,112.50
2018-04-17T05:34:11.860Z,140.63
2018-04-17T05:35:11.850Z,129.38
2018-04-17T05:36:11.805Z,106.88
2018-04-17T05:37:11.787Z,112.50
2018-04-17T05:38:11.785Z,112.50
2018-04-17T05:39:11.738Z,112.50
2018-04-17T05:40:11.759Z,112.50
2018-04-17T05:41:11.707Z,112.50
2018-04-17T05:42:11.712Z,118.13
2018-04-17T05:43:11.660Z,118.13
2018-04-17T05:44:11.648Z,123.75
2018-04-17T05:45:11.625Z,123.75
2018-04-17T05:46:11.631Z,157.50
2018-04-17T05:47:11.605Z,236.25
2018-04-17T05:48:11.565Z,275.63
2018-04-17T05:49:11.546Z,286.88
2018-04-17T05:50:11.565Z,292.50
2018-04-17T05:51:11.523Z,303.75
2018-04-17T05:52:11.561Z,315.00
2018-04-17T05:53:11.454Z,326.25
2018-04-17T05:54:11.436Z,326.25
2018-04-17T05:55:11.443Z,326.25
2018-04-17T05:56:11.440Z,337.50
2018-04-17T05:57:11.376Z,354.38
2018-04-17T05:58:11.363Z,365.63
2018-04-17T05:59:11.335Z,376.88
2018-04-17T06:00:11.342Z,382.50
2018-04-17T06:01:11.339Z,388.13
2018-04-17T06:02:11.310Z,405.00
2018-04-17T06:03:11.260Z,410.63
2018-04-17T06:04:11.264Z,416.25
2018-04-17T06:05:11.292Z,433.13
2018-04-17T06:06:11.220Z,438.75
2018-04-17T06:07:11.215Z,450.00
2018-04-17T06:08:11.210Z,461.25
2018-04-17T06:09:11.152Z,483.75
2018-04-17T06:10:11.140Z,483.75
2018-04-17T06:11:11.139Z,495.00
2018-04-17T06:12:11.115Z,506.25
2018-04-17T06:13:11.081Z,495.00
2018-04-17T06:14:11.092Z,495.00
2018-04-17T06:15:11.043Z,511.88
2018-04-17T06:16:11.037Z,523.13
2018-04-17T06:17:11.015Z,511.88
2018-04-17T06:18:10.999Z,523.13
2018-04-17T06:19:10.979Z,551.25
2018-04-17T06:20:10.957Z,556.88
2018-04-17T06:21:10.940Z,534.38
2018-04-17T06:22:10.928Z,540.00
2018-04-17T06:23:10.949Z,551.25
2018-04-17T06:24:10.887Z,579.38
2018-04-17T06:25:10.887Z,613.13
2018-04-17T06:26:10.854Z,601.88
2018-04-17T06:27:10.861Z,624.38
2018-04-17T06:28:10.850Z,646.88
2018-04-17T06:29:10.806Z,652.50
2018-04-17T06:30:10.797Z,658.13
2018-04-17T06:31:10.783Z,663.75
2018-04-17T06:32:10.770Z,652.50
2018-04-17T06:33:10.755Z,680.63
2018-04-17T06:34:10.737Z,691.88
2018-04-17T06:35:10.772Z,720.00
2018-04-17T06:36:10.723Z,736.88
2018-04-17T06:37:10.726Z,725.63
2018-04-17T06:38:10.673Z,731.25
2018-04-17T06:39:10.661Z,776.25
2018-04-17T06:40:10.636Z,821.25
2018-04-17T06:41:10.641Z,821.25
2018-04-17T06:42:10.606Z,787.50
2018-04-17T06:43:10.602Z,793.13
2018-04-17T06:44:10.577Z,810.00
2018-04-17T06:45:10.568Z,877.50
2018-04-17T06:46:10.573Z,905.63
2018-04-17T06:47:10.543Z,911.25
2018-04-17T06:48:10.528Z,916.88
2018-04-17T06:49:10.505Z,900.00
2018-04-17T06:50:10.493Z,866.25
2018-04-17T06:51:10.485Z,832.50
2018-04-17T06:52:10.511Z,832.50
2018-04-17T06:53:10.453Z,849.38
2018-04-17T06:54:10.447Z,894.38
2018-04-17T06:55:10.428Z,995.63
2018-04-17T06:56:10.443Z,967.50
2018-04-17T06:57:10.413Z,900.00
2018-04-17T06:58:10.431Z,911.25
2018-04-17T06:59:10.388Z,1023.75
2018-04-17T07:00:10.384Z,1063.13
2018-04-17T07:01:10.364Z,1018.13
2018-04-17T07:02:10.341Z,984.38
2018-04-17T07:03:10.334Z,973.13
2018-04-17T07:04:10.340Z,956.25
2018-04-17T07:05:10.327Z,793.13
2018-04-17T07:06:10.290Z,450.00
2018-04-17T07:07:10.282Z,253.13
2018-04-17T07:08:10.275Z,241.88
2018-04-17T07:09:10.252Z,236.25
2018-04-17T07:10:10.245Z,230.63
2018-04-17T07:11:10.233Z,230.63
2018-04-17T07:12:10.217Z,225.00
2018-04-17T07:13:10.211Z,225.00
2018-04-17T07:14:10.189Z,225.00
2018-04-17T07:15:10.206Z,219.38
2018-04-17T07:16:10.195Z,219.38
2018-04-17T07:17:10.175Z,219.38
2018-04-17T07:18:10.170Z,219.38
2018-04-17T07:19:10.129Z,219.38
2018-04-17T07:20:10.116Z,219.38
2018-04-17T07:21:10.104Z,219.38
2018-04-17T07:22:10.117Z,219.38
2018-04-17T07:23:10.087Z,219.38
2018-04-17T07:24:10.071Z,219.38
2018-04-17T07:25:10.129Z,219.38
2018-04-17T07:26:10.074Z,219.38
2018-04-17T07:27:10.034Z,219.38
2018-04-17T07:28:10.019Z,219.38
2018-04-17T07:29:10.022Z,219.38
2018-04-17T07:30:09.984Z,219.38
2018-04-17T07:31:09.968Z,213.75
2018-04-17T07:32:09.989Z,213.75
2018-04-17T07:33:09.968Z,213.75
2018-04-17T07:34:09.949Z,213.75
2018-04-17T07:35:09.923Z,213.75
2018-04-17T07:36:09.901Z,213.75
2018-04-17T07:37:09.885Z,213.75
2018-04-17T07:38:09.908Z,213.75
2018-04-17T07:39:09.865Z,208.13
2018-04-17T07:40:09.845Z,208.13
2018-04-17T07:41:09.839Z,208.13
2018-04-17T07:42:09.819Z,208.13
2018-04-17T07:43:09.807Z,208.13
2018-04-17T07:44:09.829Z,208.13
2018-04-17T07:45:09.783Z,208.13
2018-04-17T07:46:09.800Z,208.13
2018-04-17T07:47:09.784Z,208.13
2018-04-17T07:48:09.734Z,208.13
2018-04-17T07:49:09.721Z,208.13
2018-04-17T07:50:09.720Z,208.13
2018-04-17T07:51:09.910Z,208.13
2018-04-17T07:52:09.683Z,208.13
2018-04-17T07:53:09.693Z,208.13
2018-04-17T07:54:09.655Z,208.13
2018-04-17T07:55:09.638Z,202.50
2018-04-17T07:56:09.632Z,202.50
2018-04-17T07:57:09.627Z,202.50
2018-04-17T07:58:09.790Z,202.50
2018-04-17T07:59:09.600Z,202.50
2018-04-17T08:00:09.586Z,208.13
2018-04-17T08:01:09.907Z,202.50
2018-04-17T08:02:09.531Z,202.50
2018-04-17T08:03:09.519Z,202.50
2018-04-17T08:04:09.506Z,208.13
2018-04-17T08:05:09.489Z,208.13
2018-04-17T08:06:09.480Z,208.13
2018-04-17T08:07:09.474Z,208.13
2018-04-17T08:08:09.464Z,208.13
2018-04-17T08:09:09.452Z,208.13
2018-04-17T08:10:09.415Z,208.13
2018-04-17T08:11:09.405Z,208.13
2018-04-17T08:12:09.410Z,208.13
2018-04-17T08:13:09.427Z,213.75
2018-04-17T08:14:09.384Z,213.75
2018-04-17T08:15:09.349Z,213.75
2018-04-17T08:16:09.360Z,213.75
2018-04-17T08:17:09.326Z,213.75
2018-04-17T08:18:09.315Z,208.13
2018-04-17T08:19:09.284Z,208.13
2018-04-17T08:20:09.289Z,213.75
2018-04-17T08:21:09.249Z,213.75
2018-04-17T08:22:09.243Z,213.75
2018-04-17T08:23:09.255Z,208.13
2018-04-17T08:24:09.229Z,208.13
2018-04-17T08:25:09.191Z,208.13
2018-04-17T08:26:09.200Z,208.13
2018-04-17T08:27:09.168Z,208.13
2018-04-17T08:28:09.145Z,208.13
2018-04-17T08:29:09.163Z,208.13
2018-04-17T08:30:09.133Z,208.13
2018-04-17T08:31:09.113Z,208.13
2018-04-17T08:32:09.117Z,208.13
2018-04-17T08:33:09.091Z,208.13
2018-04-17T08:34:09.075Z,208.13
2018-04-17T08:35:09.209Z,208.13
2018-04-17T08:36:09.071Z,208.13
2018-04-17T08:37:09.065Z,208.13
2018-04-17T08:38:09.076Z,208.13
2018-04-17T08:39:08.991Z,208.13
2018-04-17T08:40:09.027Z,213.75
2018-04-17T08:41:08.962Z,213.75
2018-04-17T08:42:08.957Z,213.75
2018-04-17T08:43:08.946Z,213.75
2018-04-17T08:44:09.001Z,213.75
2018-04-17T08:45:08.928Z,213.75
2018-04-17T08:46:08.944Z,219.38
2018-04-17T08:47:08.885Z,219.38
2018-04-17T08:48:08.898Z,219.38
2018-04-17T08:49:08.853Z,219.38
2018-04-17T08:50:08.894Z,219.38
2018-04-17T08:51:08.814Z,219.38
2018-04-17T08:52:08.795Z,213.75
2018-04-17T08:53:08.818Z,213.75
2018-04-17T08:54:08.808Z,219.38
2018-04-17T08:55:08.785Z,219.38
2018-04-17T08:56:08.783Z,219.38
2018-04-17T08:57:08.745Z,219.38
2018-04-17T08:58:08.708Z,225.00
2018-04-17T08:59:08.792Z,225.00
2018-04-17T09:00:08.698Z,219.38
2018-04-17T09:01:08.972Z,219.38
2018-04-17T09:02:08.656Z,225.00
2018-04-17T09:03:08.643Z,225.00
2018-04-17T09:04:08.657Z,230.63
2018-04-17T09:05:08.642Z,230.63
2018-04-17T09:06:08.606Z,230.63
2018-04-17T09:07:08.607Z,230.63
2018-04-17T09:08:08.591Z,230.63
2018-04-17T09:09:08.575Z,230.63
2018-04-17T09:10:08.548Z,230.63
2018-04-17T09:11:08.537Z,236.25
2018-04-17T09:12:16.227Z,236.25
2018-04-17T09:14:11.632Z,236.25
2018-04-17T09:15:02.907Z,236.25
2018-04-17T09:16:02.866Z,236.25
2018-04-17T09:17:03.127Z,241.88
2018-04-17T09:18:02.824Z,241.88
2018-04-17T09:20:25.865Z,241.88
2018-04-17T09:21:25.919Z,247.50
2018-04-17T09:22:25.873Z,241.88
2018-04-17T09:23:25.807Z,241.88
2018-04-17T09:24:25.777Z,241.88
2018-04-17T09:25:25.838Z,247.50
2018-04-17T09:26:25.777Z,241.88
2018-04-17T09:27:25.747Z,241.88
2018-04-17T09:28:25.744Z,241.88
2018-04-17T09:29:25.746Z,241.88
2018-04-17T09:30:25.696Z,236.25
2018-04-17T09:31:25.704Z,241.88
2018-04-17T09:32:25.751Z,247.50
2018-04-17T09:33:25.665Z,247.50
2018-04-17T09:34:25.732Z,241.88
2018-04-17T09:35:25.661Z,247.50
2018-04-17T09:36:25.635Z,258.75
2018-04-17T09:37:25.607Z,258.75
2018-04-17T09:38:25.650Z,264.38
2018-04-17T09:39:25.616Z,264.38
2018-04-17T09:40:25.596Z,264.38
2018-04-17T09:41:25.593Z,264.38
2018-04-17T09:42:25.554Z,270.00
2018-04-17T09:43:25.545Z,281.25
2018-04-17T09:44:25.535Z,275.63
2018-04-17T09:45:25.532Z,281.25
2018-04-17T09:46:25.522Z,275.63
2018-04-17T09:47:25.460Z,270.00
2018-04-17T09:48:25.496Z,270.00
2018-04-17T09:49:25.495Z,275.63
2018-04-17T09:50:25.436Z,281.25
2018-04-17T09:51:25.421Z,286.88
2018-04-17T09:52:25.425Z,286.88
2018-04-17T09:53:25.407Z,275.63
2018-04-17T09:54:25.367Z,286.88
2018-04-17T09:55:25.376Z,292.50
2018-04-17T09:56:25.374Z,298.13
2018-04-17T09:57:25.328Z,303.75
2018-04-17T09:58:25.350Z,309.38
2018-04-17T09:59:25.328Z,315.00
2018-04-17T10:00:25.293Z,315.00
2018-04-17T10:01:25.332Z,320.63
2018-04-17T10:02:25.299Z,320.63
2018-04-17T10:03:25.275Z,320.63
2018-04-17T10:04:25.247Z,320.63
2018-04-17T10:05:25.223Z,320.63
2018-04-17T10:06:25.222Z,320.63
2018-04-17T10:07:25.214Z,320.63
2018-04-17T10:08:25.205Z,309.38
2018-04-17T10:09:25.235Z,292.50
2018-04-17T10:10:25.194Z,286.88
2018-04-17T10:11:25.186Z,298.13
2018-04-17T10:12:25.212Z,309.38
2018-04-17T10:13:25.144Z,320.63
2018-04-17T10:14:32.807Z,326.25
2018-04-17T10:16:28.305Z,337.50
2018-04-17T10:17:19.487Z,309.38
2018-04-17T10:18:19.526Z,303.75
2018-04-17T10:19:19.449Z,286.88
2018-04-17T10:20:19.433Z,281.25
2018-04-17T10:21:19.452Z,275.63
2018-04-17T10:22:19.409Z,270.00
2018-04-17T10:23:19.400Z,258.75
2018-04-17T10:24:19.451Z,264.38
2018-04-17T10:25:19.382Z,264.38
2018-04-17T10:26:19.359Z,258.75
2018-04-17T10:27:19.351Z,253.13
2018-04-17T10:28:19.342Z,258.75
2018-04-17T10:29:19.318Z,253.13
2018-04-17T10:30:19.374Z,253.13
2018-04-17T10:31:19.319Z,253.13
2018-04-17T10:32:19.353Z,253.13
2018-04-17T10:33:19.519Z,247.50
2018-04-17T10:34:19.329Z,247.50
2018-04-17T10:35:19.294Z,241.88
2018-04-17T10:36:19.279Z,241.88
2018-04-17T10:37:19.251Z,241.88
2018-04-17T10:38:19.308Z,225.00
2018-04-17T10:39:19.224Z,213.75
2018-04-17T10:40:19.193Z,236.25
2018-04-17T10:41:19.169Z,236.25
2018-04-17T10:42:19.178Z,236.25
2018-04-17T10:43:19.190Z,230.63
2018-04-17T10:44:19.129Z,230.63
2018-04-17T10:45:19.155Z,225.00
2018-04-17T10:46:19.115Z,225.00
2018-04-17T10:47:19.097Z,230.63
2018-04-17T10:48:19.084Z,230.63
2018-04-17T10:50:50.813Z,230.63
2018-04-17T10:51:42.086Z,230.63
2018-04-17T10:52:42.072Z,230.63
2018-04-17T10:53:42.069Z,230.63
2018-04-17T10:54:42.063Z,230.63
2018-04-17T10:55:42.127Z,236.25
2018-04-17T10:56:42.070Z,236.25
2018-04-17T10:57:42.019Z,236.25
2018-04-17T10:58:42.011Z,236.25
2018-04-17T10:59:42.038Z,236.25
2018-04-17T11:00:41.996Z,236.25
2018-04-17T11:01:41.956Z,241.88
2018-04-17T11:02:41.948Z,241.88
2018-04-17T11:03:41.929Z,241.88
2018-04-17T11:04:41.928Z,236.25
2018-04-17T11:05:41.929Z,236.25
2018-04-17T11:06:41.901Z,241.88
2018-04-17T11:07:41.880Z,247.50
2018-04-17T11:08:41.877Z,241.88
2018-04-17T11:09:41.849Z,241.88
2018-04-17T11:10:41.851Z,241.88
2018-04-17T11:11:49.544Z,241.88
2018-04-17T11:13:36.255Z,241.88
2018-04-17T11:14:36.367Z,241.88
2018-04-17T11:15:36.195Z,241.88
2018-04-17T11:16:36.179Z,241.88
2018-04-17T11:17:36.306Z,241.88
2018-04-17T11:18:36.204Z,241.88
2018-04-17T11:19:36.154Z,236.25
2018-04-17T11:22:01.257Z,241.88
2018-04-17T11:23:00.881Z,241.88
2018-04-17T11:24:00.836Z,241.88
2018-04-17T11:25:00.812Z,241.88
2018-04-17T11:27:33.347Z,247.50
2018-04-17T11:28:23.938Z,241.88
2018-04-17T11:29:24.020Z,241.88
2018-04-17T11:30:23.974Z,247.50
2018-04-17T11:31:23.835Z,241.88
2018-04-17T11:32:23.799Z,241.88
2018-04-17T11:33:23.826Z,241.88
2018-04-17T11:34:23.785Z,241.88
2018-04-17T11:35:23.784Z,247.50
2018-04-17T11:36:24.349Z,247.50
2018-04-17T11:39:00.436Z,247.50
2018-04-17T11:39:59.998Z,253.13
2018-04-17T11:40:59.834Z,247.50
2018-04-17T11:41:59.855Z,241.88
2018-04-17T11:42:59.994Z,241.88
2018-04-17T11:43:59.808Z,247.50
2018-04-17T11:44:59.803Z,247.50
2018-04-17T11:45:59.763Z,247.50
2018-04-17T11:46:59.813Z,247.50
2018-04-17T11:47:59.894Z,253.13
2018-04-17T11:48:59.937Z,253.13
2018-04-17T11:49:59.709Z,258.75
2018-04-17T11:50:59.777Z,258.75
2018-04-17T11:52:00.498Z,264.38
2018-04-17T11:52:59.803Z,264.38
2018-04-17T11:53:59.678Z,264.38
2018-04-17T11:54:59.710Z,264.38
2018-04-17T11:55:59.658Z,270.00
2018-04-17T11:56:59.634Z,264.38
2018-04-17T11:57:59.637Z,264.38
2018-04-17T11:58:59.636Z,258.75
2018-04-17T11:59:59.651Z,264.38
2018-04-17T12:00:59.616Z,253.13
2018-04-17T12:01:59.567Z,241.88
2018-04-17T12:02:59.812Z,241.88
2018-04-17T12:03:59.552Z,253.13
2018-04-17T12:04:59.537Z,258.75
2018-04-17T12:05:59.564Z,258.75
2018-04-17T12:06:59.527Z,264.38
2018-04-17T12:07:59.505Z,264.38
2018-04-17T12:08:59.488Z,270.00
2018-04-17T12:09:59.477Z,270.00
2018-04-17T12:10:59.477Z,275.63
2018-04-17T12:11:59.488Z,275.63
2018-04-17T12:12:59.464Z,281.25
2018-04-17T12:13:59.434Z,286.88
2018-04-17T12:14:59.422Z,281.25
2018-04-17T12:15:59.529Z,286.88
2018-04-17T12:18:32.535Z,303.75
2018-04-17T12:19:31.714Z,309.38
2018-04-17T12:21:24.810Z,315.00
2018-04-17T12:23:39.920Z,326.25
2018-04-17T12:24:38.904Z,320.63
2018-04-17T12:25:38.878Z,326.25
2018-04-17T12:26:38.855Z,348.75
2018-04-17T12:27:38.840Z,365.63
2018-04-17T12:28:38.838Z,371.25
2018-04-17T12:29:38.807Z,371.25
2018-04-17T12:30:38.804Z,354.38
2018-04-17T12:33:12.045Z,388.13
2018-04-17T12:34:01.900Z,388.13
2018-04-17T12:35:01.838Z,388.13
2018-04-17T12:36:01.798Z,371.25
2018-04-17T12:37:01.803Z,365.63
2018-04-17T12:38:01.801Z,371.25
2018-04-17T12:39:01.788Z,354.38
2018-04-17T12:40:01.763Z,354.38
2018-04-17T12:41:01.732Z,365.63
2018-04-17T12:42:01.735Z,371.25
2018-04-17T12:43:01.752Z,360.00
2018-04-17T12:44:01.746Z,365.63
2018-04-17T12:46:32.453Z,365.63
2018-04-17T12:47:24.750Z,354.38
2018-04-17T12:49:29.185Z,360.00
2018-04-17T12:50:19.094Z,360.00
2018-04-17T12:51:19.115Z,360.00
2018-04-17T12:52:19.150Z,354.38
2018-04-17T12:53:19.076Z,354.38
2018-04-17T12:54:19.058Z,354.38
2018-04-17T12:55:19.029Z,360.00
2018-04-17T12:57:42.073Z,371.25
2018-04-17T12:58:42.087Z,376.88
2018-04-17T12:59:42.062Z,388.13
2018-04-17T13:00:42.029Z,405.00
2018-04-17T13:01:42.052Z,416.25
2018-04-17T13:02:42.059Z,444.38
2018-04-17T13:03:42.041Z,528.75
2018-04-17T13:04:42.000Z,855.00
2018-04-17T13:05:41.985Z,1085.63
2018-04-17T13:06:41.990Z,1108.13
2018-04-17T13:07:42.004Z,1147.50
2018-04-17T13:10:14.286Z,1248.75
2018-04-17T13:11:05.042Z,1321.88
2018-04-17T13:12:12.699Z,1440.00
2018-04-17T13:13:58.393Z,1625.63
2018-04-17T13:14:58.347Z,1642.50
2018-04-17T13:17:04.911Z,1451.25
2018-04-17T13:17:53.761Z,1344.38
2018-04-17T13:18:53.737Z,1209.38
2018-04-17T13:19:53.762Z,1366.88
2018-04-17T13:20:53.733Z,1372.50
2018-04-17T13:21:53.711Z,1355.63
2018-04-17T13:22:53.710Z,1164.38
2018-04-17T13:23:53.784Z,1051.88
2018-04-17T13:24:53.736Z,1068.75
2018-04-17T13:25:53.707Z,1260.00
2018-04-17T13:26:53.706Z,1153.13
2018-04-17T13:27:53.681Z,1012.50
2018-04-17T13:28:53.669Z,1029.38
2018-04-17T13:29:53.649Z,1057.50
2018-04-17T13:30:53.673Z,883.13
2018-04-17T13:31:53.685Z,1074.38
2018-04-17T13:32:53.664Z,849.38
2018-04-17T13:33:53.630Z,770.63
2018-04-17T13:34:53.628Z,1001.25
2018-04-17T13:35:53.615Z,967.50
2018-04-17T13:36:53.645Z,956.25
2018-04-17T13:37:53.654Z,1018.13
2018-04-17T13:38:53.607Z,1035.00
2018-04-17T13:39:53.622Z,1035.00
2018-04-17T13:40:53.619Z,1012.50
2018-04-17T13:41:53.612Z,1012.50
2018-04-17T13:42:53.608Z,1040.63
2018-04-17T13:43:53.601Z,1074.38
2018-04-17T13:44:53.576Z,1091.25
2018-04-17T13:45:53.600Z,1108.13
2018-04-17T13:46:53.565Z,1136.25
2018-04-17T13:47:53.596Z,1125.00
2018-04-17T13:48:53.623Z,1119.38
2018-04-17T13:49:53.608Z,1147.50
2018-04-17T13:50:53.570Z,1040.63
2018-04-17T13:51:53.590Z,1074.38
2018-04-17T13:52:53.629Z,1125.00
2018-04-17T13:53:53.542Z,1147.50
2018-04-17T13:54:53.527Z,1068.75
2018-04-17T13:55:53.576Z,1074.38
2018-04-17T13:56:53.524Z,1108.13
2018-04-17T13:57:53.547Z,1203.75
2018-04-17T13:58:53.566Z,1141.88
2018-04-17T13:59:53.512Z,1231.88
2018-04-17T14:00:53.509Z,1260.00
2018-04-17T14:01:53.503Z,1220.63
2018-04-17T14:02:53.525Z,1074.38
2018-04-17T14:03:53.555Z,1125.00
2018-04-17T14:04:53.527Z,1175.63
2018-04-17T14:05:53.520Z,1170.00
2018-04-17T14:06:53.505Z,945.00
2018-04-17T14:07:53.529Z,849.38
2018-04-17T14:08:53.486Z,798.75
2018-04-17T14:09:53.577Z,714.38
2018-04-17T14:10:53.477Z,832.50
2018-04-17T14:11:53.482Z,928.13
2018-04-17T14:12:53.477Z,888.75
2018-04-17T14:13:53.516Z,950.63
2018-04-17T14:14:53.468Z,883.13
2018-04-17T14:15:53.452Z,905.63
2018-04-17T14:16:53.533Z,748.13
2018-04-17T14:17:53.583Z,635.63
2018-04-17T14:18:53.457Z,618.75
2018-04-17T14:19:53.714Z,658.13
2018-04-17T14:20:54.722Z,635.63
2018-04-17T14:21:53.605Z,613.13
2018-04-17T14:22:53.548Z,663.75
2018-04-17T14:23:53.599Z,630.00
2018-04-17T14:24:53.454Z,596.25
2018-04-17T14:25:53.525Z,601.88
2018-04-17T14:26:53.411Z,579.38
2018-04-17T14:27:53.424Z,663.75
2018-04-17T14:28:53.392Z,646.88
2018-04-17T14:29:53.408Z,618.75
2018-04-17T14:32:17.472Z,568.13
2018-04-17T14:33:16.517Z,562.50
2018-04-17T14:34:16.531Z,562.50
2018-04-17T14:35:16.518Z,590.63
2018-04-17T14:36:16.488Z,635.63
2018-04-17T14:37:16.486Z,613.13
2018-04-17T14:38:16.509Z,613.13
2018-04-17T14:39:16.510Z,517.50
2018-04-17T14:40:16.469Z,455.63
2018-04-17T14:41:16.480Z,472.50
2018-04-17T14:42:16.467Z,523.13
2018-04-17T14:43:16.490Z,534.38
2018-04-17T14:44:16.452Z,495.00
2018-04-17T14:45:16.462Z,489.38
2018-04-17T14:46:16.449Z,461.25
2018-04-17T14:47:16.433Z,489.38
2018-04-17T14:48:16.444Z,534.38
2018-04-17T14:49:24.120Z,472.50
2018-04-17T14:51:10.817Z,405.00
2018-04-17T14:52:10.823Z,399.38
2018-04-17T14:53:10.817Z,365.63
2018-04-17T14:54:10.804Z,376.88
2018-04-17T14:55:10.809Z,365.63
2018-04-17T14:56:10.783Z,365.63
2018-04-17T14:57:10.784Z,376.88
2018-04-17T14:58:11.060Z,427.50
2018-04-17T14:59:10.749Z,478.13
2018-04-17T15:00:10.752Z,450.00
2018-04-17T15:01:10.741Z,433.13
2018-04-17T15:02:10.745Z,444.38
2018-04-17T15:03:10.715Z,500.63
2018-04-17T15:04:10.766Z,579.38
2018-04-17T15:05:10.805Z,444.38
2018-04-17T15:06:10.723Z,427.50
2018-04-17T15:07:10.710Z,416.25
2018-04-17T15:08:10.691Z,466.88
2018-04-17T15:09:10.725Z,500.63
2018-04-17T15:10:10.682Z,489.38
2018-04-17T15:11:10.697Z,478.13
2018-04-17T15:12:10.671Z,438.75
2018-04-17T15:13:10.657Z,421.88
2018-04-17T15:14:10.674Z,433.13
2018-04-17T15:15:10.672Z,444.38
2018-04-17T15:16:10.633Z,388.13
2018-04-17T15:17:12.395Z,371.25
2018-04-17T15:18:10.650Z,376.88
2018-04-17T15:19:10.604Z,360.00
2018-04-17T15:20:10.673Z,365.63
2018-04-17T15:21:10.585Z,371.25
2018-04-17T15:22:10.597Z,343.13
2018-04-17T15:23:10.605Z,337.50
2018-04-17T15:24:10.612Z,348.75
2018-04-17T15:25:10.581Z,365.63
2018-04-17T15:26:10.581Z,371.25
2018-04-17T15:27:10.538Z,376.88
2018-04-17T15:28:10.559Z,376.88
2018-04-17T15:29:10.577Z,388.13
2018-04-17T15:30:10.553Z,393.75
2018-04-17T15:31:10.537Z,399.38
2018-04-17T15:32:10.504Z,393.75
2018-04-17T15:33:10.491Z,416.25
2018-04-17T15:34:10.482Z,438.75
2018-04-17T15:35:10.480Z,450.00
2018-04-17T15:36:10.502Z,466.88
2018-04-17T15:37:10.490Z,466.88
2018-04-17T15:38:10.462Z,478.13
2018-04-17T15:39:10.457Z,506.25
2018-04-17T15:40:10.438Z,534.38
2018-04-17T15:41:10.484Z,568.13
2018-04-17T15:42:10.450Z,573.75
2018-04-17T15:43:10.422Z,551.25
2018-04-17T15:44:10.462Z,534.38
2018-04-17T15:45:10.400Z,517.50
2018-04-17T15:46:10.459Z,568.13
2018-04-17T15:47:10.387Z,556.88
2018-04-17T15:48:10.404Z,523.13
2018-04-17T15:49:10.382Z,500.63
2018-04-17T15:50:10.378Z,472.50
2018-04-17T15:51:10.391Z,495.00
2018-04-17T15:52:10.412Z,495.00
2018-04-17T15:53:10.385Z,399.38
2018-04-17T15:54:10.351Z,393.75
2018-04-17T15:55:10.329Z,472.50
2018-04-17T15:56:10.376Z,511.88
2018-04-17T15:57:10.307Z,506.25
2018-04-17T15:58:10.347Z,478.13
2018-04-17T15:59:10.321Z,472.50
2018-04-17T16:00:10.288Z,427.50
2018-04-17T16:01:10.292Z,438.75
2018-04-17T16:02:10.284Z,489.38
2018-04-17T16:03:10.284Z,506.25
2018-04-17T16:04:10.280Z,478.13
2018-04-17T16:05:10.260Z,455.63
2018-04-17T16:06:10.264Z,438.75
2018-04-17T16:07:10.284Z,427.50
2018-04-17T16:08:10.297Z,438.75
2018-04-17T16:09:10.216Z,466.88
2018-04-17T16:10:10.212Z,455.63
2018-04-17T16:11:10.199Z,421.88
2018-04-17T16:12:10.214Z,405.00
2018-04-17T16:13:10.259Z,382.50
2018-04-17T16:14:10.177Z,382.50
2018-04-17T16:15:10.205Z,371.25
2018-04-17T16:16:10.195Z,360.00
2018-04-17T16:17:10.496Z,348.75
2018-04-17T16:18:10.165Z,315.00
2018-04-17T16:19:10.451Z,270.00
2018-04-17T16:20:10.139Z,247.50
2018-04-17T16:21:10.142Z,236.25
2018-04-17T16:22:10.165Z,230.63
2018-04-17T16:23:10.125Z,230.63
2018-04-17T16:24:10.105Z,225.00
2018-04-17T16:25:10.096Z,225.00
2018-04-17T16:26:10.116Z,230.63
2018-04-17T16:27:10.104Z,236.25
2018-04-17T16:28:10.071Z,225.00
2018-04-17T16:29:10.108Z,230.63
2018-04-17T16:30:10.060Z,230.63
2018-04-17T16:31:10.117Z,230.63
2018-04-17T16:32:10.065Z,225.00
2018-04-17T16:33:10.052Z,230.63
2018-04-17T16:34:10.034Z,225.00
2018-04-17T16:35:10.009Z,225.00
2018-04-17T16:36:10.005Z,225.00
2018-04-17T16:37:10.033Z,225.00
2018-04-17T16:38:09.998Z,230.63
2018-04-17T16:39:09.979Z,236.25
2018-04-17T16:40:09.998Z,241.88
2018-04-17T16:41:10.031Z,247.50
2018-04-17T16:42:09.956Z,253.13
2018-04-17T16:43:10.060Z,253.13
2018-04-17T16:44:09.949Z,241.88
2018-04-17T16:45:10.073Z,241.88
2018-04-17T16:46:09.919Z,236.25
2018-04-17T16:47:09.905Z,236.25
2018-04-17T16:48:09.942Z,241.88
2018-04-17T16:49:09.895Z,247.50
2018-04-17T16:50:09.874Z,253.13
2018-04-17T16:51:09.896Z,253.13
2018-04-17T16:52:09.889Z,258.75
2018-04-17T16:53:09.848Z,264.38
2018-04-17T16:54:09.873Z,253.13
2018-04-17T16:55:09.836Z,247.50
2018-04-17T16:56:09.847Z,247.50
2018-04-17T16:57:09.804Z,247.50
2018-04-17T16:58:09.817Z,253.13
2018-04-17T16:59:09.818Z,253.13
2018-04-17T17:00:09.810Z,247.50
2018-04-17T17:01:09.817Z,241.88
2018-04-17T17:02:09.801Z,241.88
2018-04-17T17:03:09.757Z,241.88
2018-04-17T17:04:09.756Z,241.88
2018-04-17T17:05:09.761Z,230.63
2018-04-17T17:06:09.720Z,219.38
2018-04-17T17:07:09.741Z,213.75
2018-04-17T17:08:09.703Z,208.13
2018-04-17T17:09:09.737Z,202.50
2018-04-17T17:10:09.699Z,196.88
2018-04-17T17:11:09.697Z,196.88
2018-04-17T17:12:09.671Z,196.88
2018-04-17T17:13:09.676Z,196.88
2018-04-17T17:14:09.680Z,196.88
2018-04-17T17:15:09.679Z,196.88
2018-04-17T17:16:09.639Z,191.25
2018-04-17T17:17:09.639Z,191.25
2018-04-17T17:18:09.658Z,196.88
2018-04-17T17:19:09.616Z,191.25
2018-04-17T17:20:09.593Z,191.25
2018-04-17T17:21:09.583Z,191.25
2018-04-17T17:22:09.620Z,191.25
2018-04-17T17:23:09.579Z,191.25
2018-04-17T17:24:09.545Z,191.25
2018-04-17T17:25:09.566Z,191.25
2018-04-17T17:26:09.534Z,185.63
2018-04-17T17:27:09.535Z,180.00
2018-04-17T17:28:09.523Z,174.38
2018-04-17T17:29:09.532Z,168.75
2018-04-17T17:30:09.508Z,168.75
2018-04-17T17:31:09.478Z,157.50
2018-04-17T17:32:09.467Z,151.88
2018-04-17T17:33:09.464Z,146.25
2018-04-17T17:34:09.451Z,146.25
2018-04-17T17:35:09.437Z,140.63
2018-04-17T17:36:09.424Z,135.00
2018-04-17T17:37:09.417Z,129.38
2018-04-17T17:38:09.416Z,123.75
2018-04-17T17:39:09.402Z,112.50
2018-04-17T17:40:09.391Z,112.50
2018-04-17T17:41:09.419Z,106.88
2018-04-17T17:42:09.378Z,106.88
2018-04-17T17:43:09.351Z,106.88
2018-04-17T17:44:09.369Z,101.25
2018-04-17T17:45:09.332Z,95.63
2018-04-17T17:46:09.327Z,90.00
2018-04-17T17:47:09.375Z,90.00
2018-04-17T17:48:09.344Z,84.38
2018-04-17T17:49:09.286Z,78.75
2018-04-17T17:51:31.362Z,73.13
2018-04-17T17:52:31.331Z,73.13
2018-04-17T17:53:31.297Z,67.50
2018-04-17T17:54:31.282Z,67.50
2018-04-17T17:55:31.277Z,67.50
2018-04-17T17:56:31.275Z,67.50
2018-04-17T17:57:31.281Z,61.88
2018-04-17T17:58:31.258Z,61.88
2018-04-17T17:59:31.234Z,56.25
2018-04-17T18:00:31.211Z,56.25
2018-04-17T18:01:31.232Z,56.25
2018-04-17T18:02:31.215Z,50.63
2018-04-17T18:03:31.233Z,50.63
2018-04-17T18:04:33.185Z,50.63
2018-04-17T18:05:31.160Z,45.00
2018-04-17T18:06:31.143Z,45.00
2018-04-17T18:07:31.154Z,45.00
2018-04-17T18:08:31.267Z,39.38
2018-04-17T18:09:31.138Z,39.38
2018-04-17T18:10:31.102Z,39.38
2018-04-17T18:11:31.119Z,33.75
2018-04-17T18:12:31.102Z,33.75
2018-04-17T18:13:31.101Z,33.75